createdAt,value
2018-11-20T00:03:25.249Z,3.11
2018-11-20T00:06:17.235Z,3.17
2018-11-20T00:10:54.855Z,3.28
2018-11-20T00:13:28.180Z,3.04
2018-11-20T00:16:02.975Z,3.24
2018-11-20T00:18:44.539Z,3.15
2018-11-20T00:22:17.911Z,3.28
2018-11-20T00:24:52.334Z,3.21
2018-11-20T00:27:28.814Z,2.96
2018-11-20T00:31:01.356Z,3.21
2018-11-20T00:33:35.058Z,3.19
2018-11-20T00:37:08.872Z,3.25
2018-11-20T00:40:17.796Z,3.06
2018-11-20T00:42:56.623Z,3.06
2018-11-20T00:45:30.369Z,3.17
2018-11-20T00:49:07.295Z,3.22
2018-11-20T00:51:39.903Z,3.07
2018-11-20T00:54:48.776Z,3.21
2018-11-20T00:57:25.886Z,3.22
2018-11-20T01:00:04.538Z,3.15
2018-11-20T01:02:54.285Z,3.11
2018-11-20T01:07:33.183Z,3.19
2018-11-20T01:12:13.230Z,2.88
2018-11-20T01:14:46.996Z,2.87
2018-11-20T01:17:20.631Z,2.81
2018-11-20T01:19:57.100Z,2.75
2018-11-20T01:23:30.761Z,2.84
2018-11-20T01:26:10.963Z,2.96
2018-11-20T01:28:45.179Z,2.75
2018-11-20T01:31:18.667Z,3.00
2018-11-20T01:35:54.610Z,3.01
2018-11-20T01:38:28.119Z,2.97
2018-11-20T01:43:08.924Z,2.97
2018-11-20T01:45:49.683Z,2.66
2018-11-20T01:48:23.207Z,2.81
2018-11-20T01:50:56.853Z,2.91
2018-11-20T01:55:35.128Z,2.84
2018-11-20T01:58:18.844Z,2.74
2018-11-20T02:00:52.605Z,2.67
2018-11-20T02:05:34.027Z,2.77
2018-11-20T02:09:11.634Z,2.73
2018-11-20T02:11:48.330Z,2.79
2018-11-20T02:16:31.894Z,2.68
2018-11-20T02:21:08.032Z,2.51
2018-11-20T02:24:40.316Z,2.64
2018-11-20T02:27:18.275Z,2.54
2018-11-20T02:31:58.443Z,2.64
2018-11-20T02:34:31.925Z,2.60
2018-11-20T02:37:21.252Z,2.49
2018-11-20T02:41:57.729Z,2.57
2018-11-20T02:45:02.656Z,2.47
2018-11-20T02:47:42.730Z,2.33
2018-11-20T02:50:18.261Z,2.56
2018-11-20T02:52:50.841Z,2.55
2018-11-20T02:55:24.609Z,2.52
2018-11-20T02:58:02.254Z,2.53
2018-11-20T03:00:37.684Z,2.49
2018-11-20T03:03:13.536Z,2.59
2018-11-20T03:07:53.068Z,2.54
2018-11-20T03:10:29.573Z,2.28
2018-11-20T03:13:10.108Z,2.42
2018-11-20T03:15:43.761Z,2.34
2018-11-20T03:19:21.511Z,2.30
2018-11-20T03:22:55.768Z,2.37
2018-11-20T03:26:39.493Z,2.27
2018-11-20T03:29:19.324Z,2.31
2018-11-20T03:32:08.985Z,2.34
2018-11-20T03:34:41.573Z,2.20
2018-11-20T03:39:20.928Z,2.33
2018-11-20T03:42:06.252Z,2.25
2018-11-20T03:46:45.758Z,2.07
2018-11-20T03:49:19.756Z,2.18
2018-11-20T03:53:58.554Z,2.19
2018-11-20T03:56:32.311Z,2.14
2018-11-20T03:59:06.040Z,2.24
2018-11-20T04:01:40.245Z,2.25
2018-11-20T04:05:11.607Z,2.33
2018-11-20T04:07:45.368Z,2.13
2018-11-20T04:10:24.046Z,2.18
2018-11-20T04:13:04.532Z,2.04
2018-11-20T04:15:38.483Z,2.07
2018-11-20T04:22:26.066Z,2.12
2018-11-20T04:25:04.535Z,2.10
2018-11-20T04:27:37.145Z,2.11
2018-11-20T04:32:56.985Z,2.15
2018-11-20T04:35:32.680Z,2.03
2018-11-20T04:38:11.556Z,2.13
2018-11-20T04:42:48.350Z,1.83
2018-11-20T04:47:26.647Z,1.98
2018-11-20T04:50:01.897Z,1.99
2018-11-20T04:52:39.400Z,2.13
2018-11-20T04:55:13.279Z,2.19
2018-11-20T04:57:52.284Z,2.17
2018-11-20T05:00:26.087Z,1.97
2018-11-20T05:03:14.750Z,2.08
2018-11-20T05:05:48.529Z,2.01
2018-11-20T05:10:24.980Z,2.02
2018-11-20T05:15:02.407Z,1.92
2018-11-20T05:17:38.880Z,2.02
2018-11-20T05:20:15.456Z,1.99
2018-11-20T05:22:49.141Z,2.05
2018-11-20T05:25:23.835Z,2.14
2018-11-20T05:27:59.446Z,2.23
2018-11-20T05:30:33.043Z,2.19
2018-11-20T05:33:07.376Z,2.35
2018-11-20T05:35:56.472Z,2.22
2018-11-20T05:38:30.083Z,2.27
2018-11-20T05:41:03.580Z,2.22
2018-11-20T05:43:39.163Z,2.33
2018-11-20T05:46:17.629Z,2.33
2018-11-20T05:48:53.352Z,2.30
2018-11-20T05:51:28.912Z,2.35
2018-11-20T05:56:06.203Z,2.37
2018-11-20T06:02:53.743Z,2.25
2018-11-20T06:06:26.037Z,2.14
2018-11-20T06:09:00.229Z,2.14
2018-11-20T06:11:33.903Z,2.20
2018-11-20T06:14:43.685Z,2.20
2018-11-20T06:17:18.332Z,2.06
2018-11-20T06:19:51.893Z,2.15
2018-11-20T06:22:30.496Z,2.23
2018-11-20T06:25:04.393Z,2.42
2018-11-20T06:27:38.328Z,2.34
2018-11-20T06:31:11.339Z,2.36
2018-11-20T06:33:45.752Z,2.42
2018-11-20T06:36:27.264Z,2.46
2018-11-20T06:40:01.669Z,2.42
2018-11-20T06:42:35.376Z,2.36
2018-11-20T06:45:09.191Z,2.50
2018-11-20T06:47:48.732Z,2.54
2018-11-20T06:50:31.483Z,2.56
2018-11-20T06:53:05.448Z,2.56
2018-11-20T06:55:39.820Z,2.52
2018-11-20T06:58:17.330Z,2.70
2018-11-20T07:00:54.984Z,2.49
2018-11-20T07:03:33.488Z,2.47
2018-11-20T07:06:07.281Z,2.38
2018-11-20T07:08:56.915Z,2.64
2018-11-20T07:12:31.240Z,2.72
2018-11-20T07:15:19.844Z,2.47
2018-11-20T07:19:58.406Z,2.56
2018-11-20T07:22:32.169Z,2.37
2018-11-20T07:25:05.895Z,2.46
2018-11-20T07:27:40.466Z,2.59
2018-11-20T07:30:15.964Z,2.65
2018-11-20T07:32:51.636Z,2.60
2018-11-20T07:35:26.957Z,2.73
2018-11-20T07:40:03.999Z,2.57
2018-11-20T07:43:08.785Z,2.64
2018-11-20T07:47:47.534Z,2.61
2018-11-20T07:50:26.510Z,2.56
2018-11-20T07:53:00.363Z,2.60
2018-11-20T07:55:41.864Z,2.70
2018-11-20T07:58:15.797Z,2.71
2018-11-20T08:00:49.576Z,2.84
2018-11-20T08:04:26.898Z,2.89
2018-11-20T08:07:06.424Z,2.65
2018-11-20T08:09:40.885Z,2.73
2018-11-20T08:12:17.368Z,2.91
2018-11-20T08:16:53.701Z,2.93
2018-11-20T08:20:33.422Z,2.81
2018-11-20T08:23:06.959Z,2.76
2018-11-20T08:25:46.644Z,2.97
2018-11-20T08:28:58.939Z,3.00
2018-11-20T08:31:32.682Z,3.10
2018-11-20T08:34:55.016Z,3.15
2018-11-20T08:37:41.308Z,3.26
2018-11-20T08:40:37.687Z,3.18
2018-11-20T08:43:23.152Z,3.21
2018-11-20T08:46:16.589Z,3.33
2018-11-20T08:49:01.577Z,3.14
2018-11-20T08:51:47.754Z,3.22
2018-11-20T08:54:41.117Z,3.45
2018-11-20T08:57:28.659Z,3.34
2018-11-20T09:00:34.395Z,3.39
2018-11-20T09:03:37.119Z,3.37
2018-11-20T09:06:30.599Z,3.46
2018-11-20T09:09:10.640Z,3.34
2018-11-20T09:12:16.235Z,3.54
2018-11-20T09:15:19.040Z,3.39
2018-11-20T09:18:21.844Z,3.70
2018-11-20T09:21:27.667Z,3.71
2018-11-20T09:24:14.261Z,3.66
2018-11-20T09:27:00.639Z,3.83
2018-11-20T09:30:00.897Z,3.79
2018-11-20T09:32:48.421Z,3.90
2018-11-20T09:35:54.283Z,3.71
2018-11-20T09:38:44.091Z,3.82
2018-11-20T09:41:40.721Z,3.91
2018-11-20T09:44:46.393Z,3.93
2018-11-20T09:47:43.033Z,3.91
2018-11-20T09:50:43.879Z,3.76
2018-11-20T09:53:43.856Z,3.85
2018-11-20T09:56:31.580Z,3.79
2018-11-20T09:59:39.225Z,4.13
2018-11-20T10:02:29.537Z,3.96
2018-11-20T10:05:35.117Z,3.92
2018-11-20T10:08:31.631Z,3.92
2018-11-20T10:11:19.160Z,3.92
2018-11-20T10:14:05.117Z,3.84
2018-11-20T10:16:51.384Z,4.10
2018-11-20T10:19:44.721Z,4.28
2018-11-20T10:22:36.845Z,4.15
2018-11-20T10:25:22.829Z,4.14
2018-11-20T10:28:08.973Z,3.92
2018-11-20T10:31:02.217Z,4.08
2018-11-20T10:33:48.419Z,4.08
2018-11-20T10:36:42.223Z,4.12
2018-11-20T10:39:28.712Z,3.94
2018-11-20T10:42:19.095Z,4.17
2018-11-20T10:45:05.311Z,4.11
2018-11-20T10:47:51.451Z,4.19
2018-11-20T10:50:38.491Z,4.07
2018-11-20T10:53:40.919Z,4.06
2018-11-20T10:56:28.676Z,4.27
2018-11-20T10:59:34.598Z,4.33
2018-11-20T11:02:20.857Z,4.33
2018-11-20T11:05:07.421Z,4.13
2018-11-20T11:07:53.632Z,4.21
2018-11-20T11:10:40.516Z,4.21
2018-11-20T11:13:31.025Z,4.31
2018-11-20T11:16:17.425Z,4.35
2018-11-20T11:19:07.918Z,4.57
2018-11-20T11:21:56.622Z,4.90
2018-11-20T11:24:49.542Z,4.84
2018-11-20T11:27:35.901Z,4.71
2018-11-20T11:30:22.478Z,4.61
2018-11-20T11:33:08.489Z,4.72
2018-11-20T11:35:51.362Z,4.68
2018-11-20T11:38:44.581Z,4.40
2018-11-20T11:41:38.061Z,4.49
2018-11-20T11:44:24.498Z,4.58
2018-11-20T11:47:14.645Z,4.66
2018-11-20T11:50:16.361Z,4.56
2018-11-20T11:53:03.932Z,4.50
2018-11-20T11:55:54.327Z,4.77
2018-11-20T11:58:43.405Z,4.58
2018-11-20T12:04:23.385Z,5.01
2018-11-20T12:07:22.693Z,4.87
2018-11-20T12:10:16.203Z,5.02
2018-11-20T12:16:11.697Z,5.00
2018-11-20T12:19:11.455Z,5.08
2018-11-20T12:22:08.069Z,5.09
2018-11-20T12:24:54.110Z,5.07
2018-11-20T12:27:47.972Z,5.14
2018-11-20T12:30:38.717Z,4.75
2018-11-20T12:33:32.247Z,4.98
2018-11-20T12:36:19.793Z,4.87
2018-11-20T12:39:00.310Z,4.60
2018-11-20T12:41:47.545Z,4.85
2018-11-20T12:44:33.508Z,5.07
2018-11-20T12:47:24.588Z,5.21
2018-11-20T12:50:12.241Z,4.85
2018-11-20T12:53:00.439Z,4.91
2018-11-20T12:55:46.261Z,5.08
2018-11-20T12:58:42.035Z,4.97
2018-11-20T13:01:24.890Z,4.79
2018-11-20T13:04:10.651Z,4.93
2018-11-20T13:07:00.653Z,5.11
2018-11-20T13:09:45.943Z,5.00
2018-11-20T13:12:50.872Z,4.99
2018-11-20T13:15:41.090Z,5.05
2018-11-20T13:18:31.436Z,5.26
2018-11-20T13:21:22.082Z,4.99
2018-11-20T13:24:18.996Z,5.16
2018-11-20T13:27:11.377Z,5.03
2018-11-20T13:30:07.731Z,5.08
2018-11-20T13:33:10.393Z,5.04
2018-11-20T13:35:51.067Z,5.01
2018-11-20T13:38:31.333Z,5.11
2018-11-20T13:41:42.582Z,5.03
2018-11-20T13:44:34.243Z,4.96
2018-11-20T13:47:27.567Z,5.13
2018-11-20T13:50:33.614Z,5.19
2018-11-20T13:53:22.207Z,5.00
2018-11-20T13:56:08.640Z,5.13
2018-11-20T13:58:54.949Z,4.92
2018-11-20T14:01:42.667Z,4.89
2018-11-20T14:04:29.408Z,5.03
2018-11-20T14:07:15.662Z,5.16
2018-11-20T14:09:57.277Z,5.24
2018-11-20T14:12:45.502Z,5.19
2018-11-20T14:15:31.997Z,5.25
2018-11-20T14:18:28.523Z,5.11
2018-11-20T14:21:22.190Z,4.97
2018-11-20T14:24:09.697Z,5.08
2018-11-20T14:26:57.365Z,5.26
2018-11-20T14:29:48.867Z,4.96
2018-11-20T14:32:37.409Z,4.99
2018-11-20T14:35:37.479Z,5.04
2018-11-20T14:38:28.297Z,4.96
2018-11-20T14:41:14.352Z,4.85
2018-11-20T14:44:00.443Z,4.78
2018-11-20T14:46:46.434Z,4.91
2018-11-20T14:49:33.931Z,4.62
2018-11-20T14:52:33.994Z,4.85
2018-11-20T14:55:20.244Z,4.86
2018-11-20T14:58:23.063Z,4.66
2018-11-20T15:01:16.267Z,4.59
2018-11-20T15:04:02.647Z,4.49
2018-11-20T15:06:48.669Z,4.34
2018-11-20T15:09:38.750Z,4.31
2018-11-20T15:12:24.761Z,4.24
2018-11-20T15:15:10.902Z,4.17
2018-11-20T15:18:01.267Z,4.19
2018-11-20T15:20:48.771Z,4.23
2018-11-20T15:23:45.480Z,4.12
2018-11-20T15:26:31.813Z,4.13
2018-11-20T15:29:27.438Z,3.99
2018-11-20T15:32:12.906Z,4.05
2018-11-20T15:35:02.565Z,4.20
2018-11-20T15:37:48.636Z,4.10
2018-11-20T15:40:44.272Z,3.99
2018-11-20T15:43:26.234Z,4.12
2018-11-20T15:46:14.640Z,4.18
2018-11-20T15:49:05.469Z,4.06
2018-11-20T15:51:58.829Z,4.12
2018-11-20T15:54:40.755Z,4.16
2018-11-20T15:57:27.271Z,4.05
2018-11-20T16:00:14.917Z,4.00
2018-11-20T16:03:01.574Z,3.91
2018-11-20T16:05:52.247Z,4.05
2018-11-20T16:08:50.165Z,3.93
2018-11-20T16:11:37.727Z,3.97
2018-11-20T16:14:40.656Z,3.91
2018-11-20T16:17:46.152Z,3.82
2018-11-20T16:20:41.828Z,3.57
2018-11-20T16:23:28.151Z,3.91
2018-11-20T16:26:21.475Z,3.86
2018-11-20T16:29:07.625Z,3.87
2018-11-20T16:31:53.963Z,3.77
2018-11-20T16:34:40.223Z,3.76
2018-11-20T16:37:29.758Z,3.57
2018-11-20T16:40:16.028Z,3.69
2018-11-20T16:43:06.249Z,3.56
2018-11-20T16:45:55.052Z,3.50
2018-11-20T16:48:42.598Z,3.40
2018-11-20T16:51:30.219Z,3.49
2018-11-20T16:54:24.441Z,3.27
2018-11-20T16:57:10.884Z,3.75
2018-11-20T17:00:07.563Z,3.76
2018-11-20T17:02:54.042Z,3.69
2018-11-20T17:05:54.141Z,3.45
2018-11-20T17:08:53.803Z,3.38
2018-11-20T17:11:40.201Z,3.22
2018-11-20T17:14:37.103Z,3.18
2018-11-20T17:17:26.536Z,3.10
2018-11-20T17:20:17.076Z,3.21
2018-11-20T17:23:02.912Z,3.33
2018-11-20T17:26:02.544Z,3.29
2018-11-20T17:28:48.921Z,3.28
2018-11-20T17:31:35.222Z,3.36
2018-11-20T17:34:25.827Z,3.07
2018-11-20T17:37:25.696Z,3.36
2018-11-20T17:40:13.170Z,3.44
2018-11-20T17:43:03.486Z,3.33
2018-11-20T17:45:50.012Z,3.42
2018-11-20T17:48:42.808Z,3.45
2018-11-20T17:51:28.690Z,3.48
2018-11-20T17:54:16.259Z,3.50
2018-11-20T17:57:02.272Z,3.39
2018-11-20T17:59:58.564Z,3.30
2018-11-20T18:02:44.955Z,3.28
2018-11-20T18:05:35.301Z,3.40
2018-11-20T18:08:21.388Z,3.37
2018-11-20T18:11:03.619Z,3.36
2018-11-20T18:13:54.063Z,3.43
2018-11-20T18:16:32.811Z,3.46
2018-11-20T18:19:13.923Z,3.36
2018-11-20T18:22:13.709Z,3.33
2018-11-20T18:25:01.197Z,3.38
2018-11-20T18:27:51.669Z,3.45
2018-11-20T18:30:51.189Z,3.36
2018-11-20T18:33:44.555Z,3.48
2018-11-20T18:36:34.841Z,3.44
2018-11-20T18:39:20.954Z,3.30
2018-11-20T18:42:07.469Z,3.49
2018-11-20T18:45:00.050Z,2.97
2018-11-20T18:47:50.753Z,3.32
2018-11-20T18:50:30.030Z,3.38
2018-11-20T18:53:07.625Z,3.50
2018-11-20T18:55:59.082Z,3.55
2018-11-20T18:58:45.108Z,3.29
2018-11-20T19:01:32.615Z,3.42
2018-11-20T19:04:19.145Z,3.55
2018-11-20T19:07:12.505Z,3.62
2018-11-20T19:09:53.241Z,3.52
2018-11-20T19:12:46.861Z,3.66
2018-11-20T19:15:46.173Z,3.64
2018-11-20T19:18:33.179Z,3.73
2018-11-20T19:21:26.291Z,3.91
2018-11-20T19:24:28.665Z,3.67
2018-11-20T19:27:28.153Z,3.76
2018-11-20T19:30:15.699Z,3.76
2018-11-20T19:33:01.717Z,3.75
2018-11-20T19:35:47.806Z,3.82
2018-11-20T19:38:47.412Z,3.73
2018-11-20T19:41:33.486Z,3.67
2018-11-20T19:44:21.640Z,3.69
2018-11-20T19:47:11.610Z,3.81
2018-11-20T19:49:59.139Z,3.74
2018-11-20T19:52:52.373Z,3.73
2018-11-20T19:55:45.947Z,3.72
2018-11-20T19:58:32.068Z,3.96
2018-11-20T20:01:20.370Z,3.81
2018-11-20T20:04:13.196Z,3.75
2018-11-20T20:07:15.923Z,3.71
2018-11-20T20:10:01.949Z,3.66
2018-11-20T20:13:07.602Z,3.82
2018-11-20T20:15:50.919Z,3.71
2018-11-20T20:18:56.593Z,3.64
2018-11-20T20:21:42.821Z,3.70
2018-11-20T20:24:33.196Z,3.77
2018-11-20T20:27:19.184Z,3.97
2018-11-20T20:30:15.579Z,3.83
2018-11-20T20:33:02.065Z,3.86
2018-11-20T20:35:47.993Z,3.66
2018-11-20T20:38:34.442Z,3.76
2018-11-20T20:41:22.091Z,3.78
2018-11-20T20:44:12.423Z,3.96
2018-11-20T20:47:17.816Z,3.91
2018-11-20T20:50:03.971Z,3.82
2018-11-20T20:52:57.493Z,3.62
2018-11-20T20:55:56.927Z,3.63
2018-11-20T20:58:47.803Z,3.46
2018-11-20T21:01:33.002Z,3.59
2018-11-20T21:04:10.238Z,3.56
2018-11-20T21:07:06.840Z,3.73
2018-11-20T21:09:50.453Z,3.51
2018-11-20T21:12:36.525Z,3.61
2018-11-20T21:15:23.433Z,3.43
2018-11-20T21:18:22.685Z,3.46
2018-11-20T21:21:15.456Z,3.53
2018-11-20T21:24:00.644Z,3.57
2018-11-20T21:26:47.070Z,3.60
2018-11-20T21:29:33.762Z,3.59
2018-11-20T21:32:23.964Z,3.62
2018-11-20T21:35:10.041Z,3.63
2018-11-20T21:38:06.424Z,3.68
2018-11-20T21:40:52.821Z,3.61
2018-11-20T21:43:35.905Z,3.63
2018-11-20T21:46:22.005Z,3.60
2018-11-20T21:49:18.313Z,3.56
2018-11-20T21:52:02.593Z,3.51
2018-11-20T21:54:41.412Z,3.46
2018-11-20T21:57:27.416Z,3.32
2018-11-20T22:00:16.046Z,3.31
2018-11-20T22:03:09.662Z,3.37
2018-11-20T22:06:10.700Z,3.22
2018-11-20T22:09:10.048Z,3.20
2018-11-20T22:11:56.242Z,3.17
2018-11-20T22:14:52.464Z,3.23
2018-11-20T22:17:42.866Z,3.12
2018-11-20T22:20:35.473Z,3.06
2018-11-20T22:23:28.804Z,3.02
2018-11-20T22:26:21.426Z,2.81
2018-11-20T22:29:01.767Z,2.95
2018-11-20T22:31:55.249Z,2.74
2018-11-20T22:34:41.578Z,3.03
2018-11-20T22:37:39.015Z,2.84
2018-11-20T22:40:32.501Z,3.00
2018-11-20T22:43:18.598Z,2.88
2018-11-20T22:46:04.711Z,2.86
2018-11-20T22:48:55.025Z,2.83
2018-11-20T22:51:41.201Z,2.77
2018-11-20T22:54:27.584Z,2.72
2018-11-20T22:57:27.100Z,2.93
2018-11-20T23:00:13.278Z,2.74
2018-11-20T23:02:57.035Z,2.56
2018-11-20T23:05:39.166Z,2.64
2018-11-20T23:08:07.886Z,2.41
2018-11-20T23:10:36.333Z,2.41
2018-11-20T23:13:05.000Z,2.67
2018-11-20T23:15:33.530Z,2.60
2018-11-20T23:18:02.119Z,2.62
2018-11-20T23:20:30.592Z,2.57
2018-11-20T23:23:01.213Z,2.64
2018-11-20T23:25:30.784Z,2.58
2018-11-20T23:28:01.518Z,2.90
2018-11-20T23:30:29.995Z,2.87
2018-11-20T23:32:58.482Z,2.89
2018-11-20T23:35:29.315Z,3.00
2018-11-20T23:37:57.749Z,3.20
2018-11-20T23:40:28.750Z,3.17
2018-11-20T23:42:57.305Z,3.19
2018-11-20T23:45:25.680Z,3.24
2018-11-20T23:47:54.160Z,3.21
2018-11-20T23:50:23.687Z,3.18
2018-11-20T23:52:52.163Z,3.18
2018-11-20T23:55:20.588Z,3.24
2018-11-20T23:57:49.044Z,3.23
